Time;durP1;ratioP1;P1;durP2;ratioP2;P2;SDS_P1;SDS_P2;PMS_P1;PMS_P2;Temp;Humidity;BMP_temperature;BMP_pressure;BME280_temperature;BME280_humidity;BME280_pressure;Samples;Min_cycle;Max_cycle;Signal;HPM_P1;HPM_P2
2023/03/18 00:00:43;;;;;;;20.08;15.68;;;11.20;99.90;;;;;;4997600;28;20165;-58
2023/03/18 00:03:09;;;;;;;20.67;14.65;;;11.20;99.90;;;;;;5022100;28;20041;-53
2023/03/18 00:05:35;;;;;;;19.48;15.55;;;11.10;99.90;;;;;;5025796;28;20079;-59
2023/03/18 00:08:06;;;;;;;21.55;16.33;;;11.20;99.90;;;;;;4989315;28;20040;-60
2023/03/18 00:10:33;;;;;;;22.90;17.80;;;11.20;99.90;;;;;;5025304;28;20041;-55
2023/03/18 00:13:00;;;;;;;24.13;18.15;;;11.10;99.90;;;;;;5016763;28;20040;-60
2023/03/18 00:15:27;;;;;;;21.83;17.08;;;11.10;99.90;;;;;;4997735;28;20040;-60
2023/03/18 00:17:53;;;;;;;22.67;17.70;;;11.10;99.90;;;;;;5005148;28;20124;-58
2023/03/18 00:20:27;;;;;;;18.80;14.75;;;11.10;99.90;;;;;;5009816;28;20120;-56
2023/03/18 00:22:56;;;;;;;21.50;17.05;;;11.10;99.90;;;;;;5024481;28;20046;-59
2023/03/18 00:25:22;;;;;;;23.23;17.33;;;11.10;99.90;;;;;;5009126;28;20570;-60
2023/03/18 00:27:48;;;;;;;20.80;16.00;;;11.10;99.90;;;;;;5008402;28;20246;-57
2023/03/18 00:30:14;;;;;;;24.30;16.92;;;11.10;99.90;;;;;;5015850;28;20045;-57
2023/03/18 00:32:40;;;;;;;22.13;16.05;;;11.10;99.90;;;;;;5020310;28;20042;-58
2023/03/18 00:35:06;;;;;;;22.88;16.65;;;11.10;99.90;;;;;;5013746;28;20168;-57
2023/03/18 00:37:34;;;;;;;22.02;15.98;;;11.10;99.90;;;;;;5024114;28;20038;-58
2023/03/18 00:40:04;;;;;;;27.77;15.98;;;11.10;99.90;;;;;;5032129;28;20057;-58
2023/03/18 00:42:37;;;;;;;21.38;16.00;;;11.00;99.90;;;;;;5008833;28;20050;-59
2023/03/18 00:45:06;;;;;;;20.00;14.97;;;11.00;99.90;;;;;;5025958;28;20428;-58
2023/03/18 00:47:34;;;;;;;22.63;15.43;;;11.00;99.90;;;;;;5021167;28;20056;-57
2023/03/18 00:50:00;;;;;;;22.48;15.40;;;11.00;99.90;;;;;;4998407;28;20107;-60
2023/03/18 00:52:26;;;;;;;20.85;14.63;;;10.90;99.90;;;;;;5019813;28;20042;-57
2023/03/18 00:54:52;;;;;;;22.20;17.27;;;10.90;99.90;;;;;;5004024;28;20098;-57
2023/03/18 00:57:18;;;;;;;21.85;15.68;;;10.70;99.90;;;;;;5008410;28;20121;-56
2023/03/18 00:59:47;;;;;;;21.80;17.33;;;10.90;99.90;;;;;;5016555;28;20050;-55
2023/03/18 01:02:19;;;;;;;21.23;17.55;;;10.80;99.90;;;;;;5020092;28;20524;-58
2023/03/18 01:04:45;;;;;;;26.42;18.88;;;10.80;99.90;;;;;;5024817;28;20408;-59
2023/03/18 01:07:12;;;;;;;23.73;18.73;;;10.80;99.90;;;;;;4995494;28;20033;-57
2023/03/18 01:09:39;;;;;;;26.35;20.65;;;10.80;99.90;;;;;;5015488;28;20034;-55
2023/03/18 01:12:07;;;;;;;24.10;19.55;;;10.80;99.90;;;;;;5031636;28;20045;-58
2023/03/18 01:14:35;;;;;;;24.13;18.70;;;10.80;99.90;;;;;;5014191;28;20049;-58
2023/03/18 01:17:05;;;;;;;24.40;19.70;;;10.70;99.90;;;;;;5013456;28;20285;-53
2023/03/18 01:19:31;;;;;;;26.05;21.20;;;10.70;99.90;;;;;;5009136;28;20389;-58
2023/03/18 01:21:57;;;;;;;25.52;21.02;;;10.70;99.90;;;;;;5003051;28;20073;-56
2023/03/18 01:24:23;;;;;;;29.70;22.33;;;10.70;99.90;;;;;;5010022;28;20412;-59
2023/03/18 01:26:49;;;;;;;28.00;21.25;;;10.70;99.90;;;;;;5002251;28;20045;-56
2023/03/18 01:29:15;;;;;;;34.00;23.55;;;10.60;99.90;;;;;;5001407;28;20041;-58
2023/03/18 01:31:41;;;;;;;26.95;21.40;;;10.60;99.90;;;;;;5004261;28;20041;-58
2023/03/18 01:34:07;;;;;;;28.33;21.02;;;10.50;99.90;;;;;;5023304;28;20046;-59
2023/03/18 01:36:33;;;;;;;27.13;21.27;;;10.50;99.90;;;;;;5016909;28;20489;-59
2023/03/18 01:38:58;;;;;;;31.83;22.33;;;10.50;99.90;;;;;;5017419;28;20046;-57
2023/03/18 01:41:25;;;;;;;32.63;23.48;;;10.40;99.90;;;;;;5002367;28;20045;-56
2023/03/18 01:43:55;;;;;;;28.65;22.35;;;10.40;99.90;;;;;;5003491;28;20145;-58
2023/03/18 01:46:41;;;;;;;26.83;21.42;;;10.30;99.90;;;;;;5003996;28;20057;-57
2023/03/18 01:49:13;;;;;;;29.15;21.77;;;10.30;99.90;;;;;;4998329;28;20128;-55
2023/03/18 01:51:42;;;;;;;32.72;23.95;;;10.30;99.90;;;;;;5018793;28;20049;-55
2023/03/18 01:54:09;;;;;;;30.23;23.35;;;10.20;99.90;;;;;;5030152;28;20062;-56
2023/03/18 01:56:38;;;;;;;33.75;25.52;;;10.20;99.90;;;;;;5020688;28;20057;-55
2023/03/18 01:59:05;;;;;;;30.75;24.08;;;10.10;99.90;;;;;;5019628;28;20046;-58
2023/03/18 02:01:38;;;;;;;30.10;22.20;;;10.10;99.90;;;;;;5019215;28;20420;-61
2023/03/18 02:04:06;;;;;;;32.43;24.57;;;10.10;99.90;;;;;;5011790;28;20049;-56
2023/03/18 02:06:32;;;;;;;33.00;24.30;;;10.00;99.90;;;;;;5015456;28;20354;-53
2023/03/18 02:08:59;;;;;;;30.80;24.95;;;10.00;99.90;;;;;;5042752;22;20128;-53
2023/03/18 02:11:25;;;;;;;28.88;24.15;;;9.90;99.90;;;;;;5012133;28;20057;-57
2023/03/18 02:13:52;;;;;;;35.05;26.55;;;9.90;99.90;;;;;;5031127;28;20048;-55
2023/03/18 02:16:26;;;;;;;33.85;26.40;;;9.90;99.90;;;;;;5043783;28;20037;-55
2023/03/18 02:18:59;;;;;;;32.80;27.25;;;9.90;99.90;;;;;;5038647;28;20122;-57
2023/03/18 02:21:39;;;;;;;34.50;26.88;;;9.80;99.90;;;;;;5042233;28;20073;-58
2023/03/18 02:24:25;;;;;;;36.00;27.80;;;9.80;99.90;;;;;;5045153;28;20049;-57
2023/03/18 02:27:23;;;;;;;33.88;25.38;;;9.80;99.90;;;;;;5046996;28;20071;-59
2023/03/18 02:29:53;;;;;;;32.75;25.25;;;9.70;99.90;;;;;;5036517;28;20508;-59
2023/03/18 02:32:20;;;;;;;33.30;25.73;;;9.70;99.90;;;;;;5038601;28;20076;-59
2023/03/18 02:34:49;;;;;;;31.70;26.48;;;9.70;99.90;;;;;;5044279;28;20084;-57
2023/03/18 02:37:14;;;;;;;35.03;27.20;;;9.60;99.90;;;;;;5045633;28;20483;-56
2023/03/18 02:39:41;;;;;;;35.65;29.08;;;9.60;99.90;;;;;;5032103;28;20044;-59
2023/03/18 02:42:09;;;;;;;36.47;27.60;;;9.60;99.90;;;;;;5026668;28;20557;-59
2023/03/18 02:44:40;;;;;;;37.20;29.33;;;9.60;99.90;;;;;;5039008;28;20056;-55
2023/03/18 02:47:15;;;;;;;37.92;29.63;;;9.50;99.90;;;;;;5048695;28;20045;-58
2023/03/18 02:49:41;;;;;;;34.65;26.90;;;9.50;99.90;;;;;;5043721;28;20534;-58
2023/03/18 02:52:07;;;;;;;38.20;28.60;;;9.50;99.90;;;;;;5033216;28;20476;-56
2023/03/18 02:54:33;;;;;;;39.55;31.20;;;9.40;99.90;;;;;;5009670;28;20523;-59
2023/03/18 02:56:59;;;;;;;39.78;29.80;;;9.40;99.90;;;;;;5044687;28;20319;-58
2023/03/18 02:59:25;;;;;;;40.88;30.38;;;9.40;99.90;;;;;;5036694;28;20052;-59
2023/03/18 03:01:54;;;;;;;38.97;30.70;;;9.30;99.90;;;;;;5023754;28;20061;-57
2023/03/18 03:04:23;;;;;;;41.67;30.83;;;9.30;99.90;;;;;;5045993;28;20041;-56
2023/03/18 03:06:50;;;;;;;40.60;31.73;;;9.30;99.90;;;;;;5029096;28;20110;-55
2023/03/18 03:09:16;;;;;;;38.13;30.08;;;9.30;99.90;;;;;;5015257;28;20055;-58
2023/03/18 03:11:44;;;;;;;42.55;31.70;;;9.20;99.90;;;;;;5049157;28;20527;-58
2023/03/18 03:14:14;;;;;;;39.97;31.55;;;9.20;99.90;;;;;;5043926;28;20045;-58
2023/03/18 03:16:42;;;;;;;47.40;35.15;;;9.20;99.90;;;;;;5038285;28;20046;-59
2023/03/18 03:19:08;;;;;;;41.17;33.03;;;9.10;99.90;;;;;;5041059;28;20092;-56
2023/03/18 03:21:34;;;;;;;46.70;32.67;;;9.10;99.90;;;;;;5044351;28;20486;-59
2023/03/18 03:24:05;;;;;;;39.58;30.92;;;9.00;99.90;;;;;;5043603;28;20092;-58
2023/03/18 03:26:31;;;;;;;46.88;32.08;;;9.00;99.90;;;;;;5051076;28;20106;-59
2023/03/18 03:28:57;;;;;;;41.65;31.40;;;9.00;99.90;;;;;;5052537;28;20499;-59
2023/03/18 03:31:23;;;;;;;42.83;30.98;;;9.00;99.90;;;;;;5032306;28;20099;-53
2023/03/18 03:33:49;;;;;;;40.97;30.98;;;9.00;99.90;;;;;;5042906;28;20037;-54
2023/03/18 03:36:16;;;;;;;40.13;29.73;;;9.00;99.90;;;;;;5047644;28;20064;-55
2023/03/18 03:38:42;;;;;;;40.78;31.48;;;8.90;99.90;;;;;;5038162;28;20052;-52
2023/03/18 03:41:10;;;;;;;41.92;30.25;;;8.90;99.90;;;;;;5041920;28;20326;-52
2023/03/18 03:43:37;;;;;;;45.70;32.05;;;8.80;99.90;;;;;;5045501;28;20049;-52
2023/03/18 03:46:04;;;;;;;42.03;32.10;;;8.80;99.90;;;;;;5045568;28;20064;-55
2023/03/18 03:48:30;;;;;;;41.95;32.67;;;8.80;99.90;;;;;;5029353;28;20032;-56
2023/03/18 03:50:56;;;;;;;46.28;33.60;;;8.70;99.90;;;;;;5027258;28;20057;-54
2023/03/18 03:53:23;;;;;;;41.28;33.53;;;8.80;99.90;;;;;;5054545;28;20052;-54
2023/03/18 03:55:50;;;;;;;47.55;34.05;;;8.70;99.90;;;;;;5044513;28;20053;-55
2023/03/18 03:58:15;;;;;;;44.92;31.70;;;8.70;99.90;;;;;;5038122;28;20059;-55
2023/03/18 04:00:42;;;;;;;48.90;33.20;;;8.70;99.90;;;;;;5043932;28;20041;-56
2023/03/18 04:03:08;;;;;;;41.55;30.70;;;8.70;99.90;;;;;;5030736;28;20052;-52
2023/03/18 04:05:33;;;;;;;42.83;30.45;;;8.70;99.90;;;;;;5045506;28;20057;-55
2023/03/18 04:08:00;;;;;;;41.50;29.92;;;8.60;99.90;;;;;;5029593;28;20213;-57
2023/03/18 04:10:27;;;;;;;39.92;30.60;;;8.60;99.90;;;;;;5032432;28;20107;-55
2023/03/18 04:12:53;;;;;;;39.55;28.45;;;8.60;99.90;;;;;;5044800;28;20061;-54
2023/03/18 04:15:21;;;;;;;36.55;26.73;;;8.50;99.90;;;;;;5039800;28;20137;-57
2023/03/18 04:17:50;;;;;;;44.78;29.80;;;8.50;99.90;;;;;;5052547;28;20049;-57
2023/03/18 04:20:17;;;;;;;40.83;29.40;;;8.50;99.90;;;;;;5014001;28;20479;-53
2023/03/18 04:22:43;;;;;;;42.47;28.10;;;8.50;99.90;;;;;;5043549;28;20052;-55
2023/03/18 04:25:10;;;;;;;41.47;30.00;;;8.40;99.90;;;;;;5045503;28;20465;-55
2023/03/18 04:27:37;;;;;;;37.13;28.27;;;8.50;99.90;;;;;;5047573;28;20037;-55
2023/03/18 04:30:05;;;;;;;46.65;31.58;;;8.50;99.90;;;;;;5030965;28;20057;-55
2023/03/18 04:32:31;;;;;;;38.80;28.80;;;8.40;99.90;;;;;;5039608;28;20033;-55
2023/03/18 04:34:57;;;;;;;47.22;30.17;;;8.50;99.90;;;;;;5051373;28;20591;-54
2023/03/18 04:37:22;;;;;;;51.97;33.38;;;8.50;99.90;;;;;;5048685;28;20053;-57
2023/03/18 04:39:49;;;;;;;50.53;32.25;;;8.50;99.90;;;;;;5047790;28;20052;-59
2023/03/18 04:42:16;;;;;;;59.25;32.30;;;8.50;99.90;;;;;;5030439;28;20124;-58
2023/03/18 04:44:42;;;;;;;56.80;30.58;;;8.50;99.90;;;;;;5044514;28;20049;-55
2023/03/18 04:47:08;;;;;;;81.15;36.83;;;8.60;99.90;;;;;;5037004;28;20076;-55
2023/03/18 04:49:34;;;;;;;64.80;33.00;;;8.60;99.90;;;;;;5028644;28;20080;-58
2023/03/18 04:52:00;;;;;;;61.75;32.38;;;8.60;99.90;;;;;;5043964;28;20438;-58
2023/03/18 04:54:27;;;;;;;60.55;32.63;;;8.60;99.90;;;;;;5045608;28;20033;-58
2023/03/18 04:56:53;;;;;;;72.70;34.90;;;8.70;99.90;;;;;;5038266;28;20045;-56
2023/03/18 04:59:19;;;;;;;71.75;31.88;;;8.70;99.90;;;;;;5039334;28;20037;-55
2023/03/18 05:01:44;;;;;;;60.08;31.77;;;8.90;99.90;;;;;;5038082;28;20056;-56
2023/03/18 05:04:10;;;;;;;74.28;31.92;;;8.70;99.90;;;;;;5041405;28;20041;-54
2023/03/18 05:06:37;;;;;;;72.22;31.50;;;8.80;99.90;;;;;;5035717;28;20091;-56
2023/03/18 05:09:04;;;;;;;67.25;30.50;;;8.80;99.90;;;;;;5043555;28;20051;-57
2023/03/18 05:11:30;;;;;;;86.90;31.90;;;8.80;99.90;;;;;;5028230;28;20041;-52
2023/03/18 05:13:59;;;;;;;78.93;32.08;;;8.80;99.90;;;;;;5032485;28;20091;-56
2023/03/18 05:16:25;;;;;;;50.00;26.67;;;8.80;99.90;;;;;;5042006;28;20037;-52
2023/03/18 05:18:53;;;;;;;51.67;26.60;;;8.80;99.90;;;;;;5042558;28;20045;-52
2023/03/18 05:21:19;;;;;;;64.00;30.67;;;8.80;99.90;;;;;;5038513;28;20034;-58
2023/03/18 05:23:46;;;;;;;81.97;29.13;;;8.80;99.90;;;;;;5041734;28;20043;-54
2023/03/18 05:26:15;;;;;;;65.22;28.25;;;8.80;99.90;;;;;;5021802;28;20048;-57
2023/03/18 05:28:41;;;;;;;100.85;33.08;;;8.80;99.90;;;;;;5026304;28;20466;-55
2023/03/18 05:31:07;;;;;;;72.50;28.45;;;8.80;99.90;;;;;;5032506;28;20032;-58
2023/03/18 05:33:33;;;;;;;58.33;27.58;;;8.80;99.90;;;;;;5024296;28;20147;-53
2023/03/18 05:35:59;;;;;;;112.28;33.08;;;8.80;99.90;;;;;;5022148;28;20056;-52
2023/03/18 05:38:25;;;;;;;81.35;30.27;;;8.80;99.90;;;;;;5040815;28;20462;-53
2023/03/18 05:40:51;;;;;;;78.45;31.00;;;8.90;99.90;;;;;;5044625;28;20049;-54
2023/03/18 05:43:17;;;;;;;114.25;33.75;;;8.80;99.90;;;;;;5048460;28;20052;-55
2023/03/18 05:45:42;;;;;;;54.25;25.70;;;8.90;99.90;;;;;;5026230;28;20052;-57
2023/03/18 05:48:09;;;;;;;67.00;30.05;;;8.90;99.90;;;;;;5039250;28;20040;-56
2023/03/18 05:50:40;;;;;;;78.68;31.27;;;8.90;99.90;;;;;;5041093;28;20045;-52
2023/03/18 05:53:10;;;;;;;78.05;33.42;;;8.90;99.90;;;;;;5039324;28;20060;-57
2023/03/18 05:55:41;;;;;;;80.53;35.05;;;9.00;99.90;;;;;;5025171;28;20268;-54
2023/03/18 05:58:07;;;;;;;72.40;33.83;;;9.00;99.90;;;;;;5037504;28;20048;-55
2023/03/18 06:00:34;;;;;;;92.55;39.45;;;9.00;99.90;;;;;;5023007;28;20046;-54
2023/03/18 06:03:00;;;;;;;102.53;44.17;;;9.00;99.90;;;;;;5044265;28;20068;-56
2023/03/18 06:05:30;;;;;;;101.40;44.40;;;9.00;99.90;;;;;;5042742;28;20037;-53
2023/03/18 06:07:56;;;;;;;81.55;39.45;;;9.00;99.90;;;;;;5039148;28;20065;-57
2023/03/18 06:10:24;;;;;;;85.75;41.60;;;9.00;99.90;;;;;;5036424;28;20572;-56
2023/03/18 06:12:50;;;;;;;67.53;36.85;;;9.00;99.90;;;;;;5039543;28;20045;-57
2023/03/18 06:15:17;;;;;;;74.47;38.35;;;9.00;99.90;;;;;;5045131;28;20500;-56
2023/03/18 06:17:43;;;;;;;72.03;40.20;;;9.00;99.90;;;;;;5025898;28;20352;-57
2023/03/18 06:20:10;;;;;;;80.15;38.85;;;9.00;99.90;;;;;;5002930;28;20045;-58
2023/03/18 06:22:37;;;;;;;67.97;39.10;;;9.00;99.90;;;;;;5044627;28;20131;-58
2023/03/18 06:25:06;;;;;;;55.45;32.55;;;9.00;99.90;;;;;;5037925;28;20143;-58
2023/03/18 06:27:32;;;;;;;62.85;37.67;;;8.90;99.90;;;;;;5037989;28;20052;-56
2023/03/18 06:30:01;;;;;;;68.32;37.88;;;8.90;99.90;;;;;;5031238;28;20032;-58
2023/03/18 06:32:28;;;;;;;64.22;37.92;;;8.90;99.90;;;;;;5036351;28;20052;-58
2023/03/18 06:34:55;;;;;;;62.03;36.92;;;8.90;99.90;;;;;;5044129;28;20521;-59
2023/03/18 06:37:24;;;;;;;61.75;37.45;;;8.90;99.90;;;;;;5028356;28;20407;-57
2023/03/18 06:39:49;;;;;;;58.65;34.65;;;8.90;99.90;;;;;;5029735;28;20040;-56
2023/03/18 06:42:15;;;;;;;58.38;35.15;;;8.90;99.90;;;;;;5041670;28;20120;-57
2023/03/18 06:44:42;;;;;;;53.53;34.83;;;8.90;99.90;;;;;;5027615;28;20036;-58
2023/03/18 06:47:08;;;;;;;53.00;34.08;;;8.90;99.90;;;;;;5037347;28;20056;-56
2023/03/18 06:49:34;;;;;;;62.25;39.05;;;8.90;99.90;;;;;;5026710;28;20087;-59
2023/03/18 06:52:01;;;;;;;59.30;36.22;;;9.00;99.90;;;;;;5038721;28;20049;-57
2023/03/18 06:54:27;;;;;;;56.20;36.08;;;9.00;99.90;;;;;;5028371;28;20492;-56
2023/03/18 06:56:53;;;;;;;58.90;37.78;;;9.10;99.90;;;;;;5037069;28;20642;-56
2023/03/18 06:59:22;;;;;;;58.58;39.00;;;9.10;99.90;;;;;;5047640;28;20427;-58
2023/03/18 07:01:48;;;;;;;58.13;37.90;;;9.10;99.90;;;;;;5029883;28;20045;-58
2023/03/18 07:04:14;;;;;;;54.35;36.65;;;9.20;99.90;;;;;;5038775;28;20246;-58
2023/03/18 07:06:42;;;;;;;67.35;39.97;;;9.30;99.90;;;;;;5030889;28;20487;-58
2023/03/18 07:09:14;;;;;;;55.72;38.17;;;9.30;99.90;;;;;;5029694;28;20152;-55
2023/03/18 07:11:39;;;;;;;54.80;35.55;;;9.40;99.90;;;;;;5023294;28;20047;-55
2023/03/18 07:14:05;;;;;;;53.15;36.97;;;9.40;99.90;;;;;;5026683;28;20037;-55
2023/03/18 07:16:31;;;;;;;53.58;33.78;;;9.40;99.90;;;;;;5033358;28;20414;-58
2023/03/18 07:18:57;;;;;;;55.00;38.53;;;9.40;99.90;;;;;;5024493;28;20034;-56
2023/03/18 07:21:24;;;;;;;52.47;37.35;;;9.50;99.90;;;;;;5037491;28;20045;-56
2023/03/18 07:23:51;;;;;;;52.00;37.13;;;9.50;99.90;;;;;;5040453;28;20404;-56
2023/03/18 07:26:17;;;;;;;53.83;37.03;;;9.50;99.90;;;;;;5036429;28;20049;-55
2023/03/18 07:28:45;;;;;;;55.88;38.70;;;9.50;99.90;;;;;;5034774;28;20083;-55
2023/03/18 07:31:11;;;;;;;50.70;36.22;;;9.60;99.90;;;;;;5017481;28;20088;-59
2023/03/18 07:33:37;;;;;;;53.80;36.67;;;9.60;99.90;;;;;;5034786;28;20076;-54
2023/03/18 07:36:03;;;;;;;51.20;36.33;;;9.60;99.90;;;;;;5036979;28;20041;-54
2023/03/18 07:38:29;;;;;;;49.67;36.10;;;9.70;99.90;;;;;;5040692;28;20067;-53
2023/03/18 07:40:55;;;;;;;60.50;38.67;;;9.70;99.90;;;;;;5041749;28;20080;-57
2023/03/18 07:43:21;;;;;;;55.03;37.95;;;9.80;99.90;;;;;;5048390;28;20060;-55
2023/03/18 07:45:47;;;;;;;55.65;38.72;;;9.80;99.90;;;;;;5047294;28;20041;-52
2023/03/18 07:48:13;;;;;;;59.30;39.90;;;9.80;99.90;;;;;;5054290;28;20041;-53
2023/03/18 07:50:39;;;;;;;50.13;35.83;;;9.90;99.90;;;;;;5041095;28;20131;-56
2023/03/18 07:53:05;;;;;;;52.63;36.35;;;9.90;99.90;;;;;;5034195;28;20056;-54
2023/03/18 07:55:32;;;;;;;46.85;35.10;;;10.00;99.90;;;;;;5031544;28;20041;-53
2023/03/18 07:57:58;;;;;;;49.45;34.67;;;10.00;99.90;;;;;;5025783;28;20049;-57
2023/03/18 08:00:24;;;;;;;54.17;38.67;;;10.00;99.90;;;;;;5024912;28;20857;-52
2023/03/18 08:02:50;;;;;;;50.88;36.28;;;10.00;99.90;;;;;;5024262;28;20132;-53
2023/03/18 08:05:17;;;;;;;55.75;38.75;;;10.00;99.90;;;;;;5027337;28;20044;-54
2023/03/18 08:07:47;;;;;;;48.38;34.70;;;10.10;99.90;;;;;;5038662;22;20051;-58
2023/03/18 08:10:14;;;;;;;50.63;36.63;;;10.10;99.90;;;;;;5008384;28;20076;-57
2023/03/18 08:12:41;;;;;;;50.28;38.63;;;10.10;99.90;;;;;;5012072;28;20041;-57
2023/03/18 08:15:08;;;;;;;48.63;36.80;;;10.10;99.90;;;;;;5000408;28;20041;-58
2023/03/18 08:17:34;;;;;;;45.88;36.20;;;10.20;99.90;;;;;;5013233;28;20096;-57
2023/03/18 08:20:00;;;;;;;51.00;36.38;;;10.20;99.90;;;;;;5010240;28;20705;-57
2023/03/18 08:22:29;;;;;;;48.85;38.22;;;10.30;99.90;;;;;;5010188;28;20104;-57
2023/03/18 08:24:58;;;;;;;50.17;36.70;;;10.30;99.90;;;;;;4990625;28;20455;-58
2023/03/18 08:27:24;;;;;;;50.05;36.70;;;10.40;99.90;;;;;;4987585;28;20046;-56
2023/03/18 08:29:50;;;;;;;47.72;36.13;;;10.40;99.90;;;;;;4993529;28;20087;-57
2023/03/18 08:32:19;;;;;;;46.03;35.17;;;10.50;99.90;;;;;;4999410;28;20038;-57
2023/03/18 08:34:45;;;;;;;48.40;37.22;;;10.50;99.90;;;;;;5005751;28;20088;-58
2023/03/18 08:37:11;;;;;;;45.08;34.75;;;10.60;99.90;;;;;;4991113;28;20059;-57
2023/03/18 08:39:38;;;;;;;50.22;37.78;;;10.60;99.90;;;;;;4986625;28;20042;-57
2023/03/18 08:42:05;;;;;;;48.00;36.15;;;10.60;99.90;;;;;;5013558;28;20531;-58
2023/03/18 08:44:32;;;;;;;45.63;34.35;;;10.60;99.90;;;;;;4984774;28;20064;-59
2023/03/18 08:46:57;;;;;;;48.92;35.65;;;10.60;99.90;;;;;;5011674;28;20049;-56
2023/03/18 08:49:26;;;;;;;41.30;34.17;;;10.70;99.90;;;;;;5001765;28;20044;-57
2023/03/18 08:51:52;;;;;;;45.28;33.45;;;10.70;99.90;;;;;;5009818;28;20040;-57
2023/03/18 08:54:19;;;;;;;52.97;35.40;;;10.70;99.90;;;;;;5013734;28;20034;-58
2023/03/18 08:56:44;;;;;;;42.92;33.03;;;10.70;99.90;;;;;;4989593;28;20389;-57
2023/03/18 08:59:10;;;;;;;46.15;34.67;;;10.80;99.90;;;;;;5008974;28;20034;-57
2023/03/18 09:01:36;;;;;;;42.58;32.50;;;10.80;99.90;;;;;;4990247;28;20273;-54
2023/03/18 09:04:02;;;;;;;43.28;34.25;;;10.80;99.90;;;;;;5007502;28;20428;-56
2023/03/18 09:06:28;;;;;;;38.97;33.85;;;10.90;99.90;;;;;;5013051;28;20037;-56
2023/03/18 09:08:54;;;;;;;48.30;35.58;;;10.90;99.90;;;;;;4991954;28;20048;-58
2023/03/18 09:11:21;;;;;;;44.42;33.38;;;10.90;99.90;;;;;;5005155;28;20128;-57
2023/03/18 09:13:46;;;;;;;43.20;32.95;;;10.90;99.90;;;;;;4996413;28;20029;-56
2023/03/18 09:16:12;;;;;;;42.20;32.70;;;11.00;99.90;;;;;;4984501;28;20040;-57
2023/03/18 09:18:39;;;;;;;40.70;32.17;;;11.00;99.90;;;;;;4990947;28;20045;-58
2023/03/18 09:21:05;;;;;;;41.67;32.95;;;11.10;99.90;;;;;;4992412;28;20050;-58
2023/03/18 09:23:31;;;;;;;41.25;33.55;;;11.20;99.90;;;;;;5013739;28;20040;-58
2023/03/18 09:25:58;;;;;;;41.05;32.80;;;11.20;99.90;;;;;;4990660;28;20077;-58
2023/03/18 09:28:27;;;;;;;45.80;36.25;;;11.30;99.90;;;;;;5016930;28;20404;-58
2023/03/18 09:30:53;;;;;;;39.03;32.67;;;11.30;99.90;;;;;;4989350;28;20049;-58
2023/03/18 09:33:19;;;;;;;40.35;33.70;;;11.40;99.90;;;;;;5007242;28;20046;-56
2023/03/18 09:35:45;;;;;;;41.08;33.03;;;11.40;99.90;;;;;;4989302;28;20425;-57
2023/03/18 09:38:17;;;;;;;46.55;33.78;;;11.50;99.90;;;;;;4979284;28;20030;-56
2023/03/18 09:41:41;;;;;;;42.20;34.40;;;11.50;99.90;;;;;;4979495;28;20077;-57
2023/03/18 09:44:23;;;;;;;41.78;31.50;;;11.60;99.90;;;;;;4956947;28;20102;-56
2023/03/18 09:47:04;;;;;;;37.20;31.20;;;11.60;99.90;;;;;;4995604;28;20050;-54
2023/03/18 09:49:56;;;;;;;38.33;31.85;;;11.70;99.90;;;;;;4983076;28;20049;-55
2023/03/18 09:52:36;;;;;;;42.33;32.50;;;11.90;99.90;;;;;;4998291;28;20200;-55
2023/03/18 09:55:17;;;;;;;38.80;29.63;;;12.20;99.90;;;;;;4998990;28;20054;-57
2023/03/18 09:57:49;;;;;;;37.85;30.25;;;12.40;99.90;;;;;;4997017;28;20033;-57
2023/03/18 10:00:20;;;;;;;35.13;28.85;;;12.70;99.90;;;;;;5003838;28;20034;-57
2023/03/18 10:02:55;;;;;;;34.47;27.58;;;12.70;99.90;;;;;;4969156;28;20069;-57
2023/03/18 10:05:52;;;;;;;32.72;26.73;;;12.90;99.90;;;;;;5000153;28;20057;-55
2023/03/18 10:08:40;;;;;;;36.90;27.48;;;13.10;99.90;;;;;;4997532;28;20049;-56
2023/03/18 10:11:18;;;;;;;40.72;27.20;;;13.20;99.90;;;;;;5000616;28;20052;-56
2023/03/18 10:13:55;;;;;;;34.13;26.90;;;13.40;99.90;;;;;;4982113;28;20409;-55
2023/03/18 10:16:25;;;;;;;29.73;24.92;;;13.60;99.90;;;;;;4962265;28;21092;-59
2023/03/18 10:18:51;;;;;;;34.80;26.23;;;13.90;99.90;;;;;;4982007;28;20073;-57
2023/03/18 10:21:27;;;;;;;30.05;24.88;;;14.10;99.90;;;;;;5001781;28;20062;-58
2023/03/18 10:24:18;;;;;;;26.92;21.90;;;14.20;99.90;;;;;;5007139;28;20538;-57
2023/03/18 10:27:12;;;;;;;28.00;22.15;;;14.40;99.90;;;;;;5006501;28;20041;-57
2023/03/18 10:29:45;;;;;;;;;;;14.60;99.90;;;;;;5006161;28;20045;-59
2023/03/18 10:32:33;;;;;;;24.08;19.30;;;14.70;99.90;;;;;;4971564;28;20305;-57
2023/03/18 10:35:18;;;;;;;25.90;20.77;;;14.70;99.90;;;;;;5005993;28;20046;-57
2023/03/18 10:37:46;;;;;;;23.15;17.75;;;14.80;99.90;;;;;;5010295;28;20100;-58
2023/03/18 10:40:15;;;;;;;18.40;14.23;;;14.80;99.90;;;;;;5006574;28;20042;-58
2023/03/18 10:42:44;;;;;;;14.38;11.27;;;14.80;99.90;;;;;;4996497;28;20049;-56
2023/03/18 10:45:26;;;;;;;14.15;10.63;;;14.60;99.90;;;;;;4975520;28;20046;-58
2023/03/18 10:48:00;;;;;;;15.70;12.65;;;14.50;99.90;;;;;;4990586;28;20041;-57
2023/03/18 10:50:37;;;;;;;17.25;11.57;;;14.50;99.90;;;;;;5004603;28;20422;-57
2023/03/18 10:53:35;;;;;;;12.60;10.20;;;14.70;99.90;;;;;;5012570;28;20103;-56
2023/03/18 10:56:01;;;;;;;15.95;10.80;;;14.80;99.90;;;;;;5007491;28;20061;-58
2023/03/18 10:58:30;;;;;;;13.02;10.05;;;15.10;99.90;;;;;;5004162;28;20030;-58
2023/03/18 11:00:56;;;;;;;13.07;10.60;;;15.20;99.90;;;;;;4961945;28;20042;-58
2023/03/18 11:03:33;;;;;;;14.45;9.85;;;15.40;99.90;;;;;;5001608;28;20077;-57
2023/03/18 11:06:03;;;;;;;13.30;9.07;;;15.60;99.90;;;;;;4976143;28;20041;-57
2023/03/18 11:08:38;;;;;;;8.98;8.07;;;15.80;99.90;;;;;;5000269;28;20404;-59
2023/03/18 11:11:38;;;;;;;11.18;7.97;;;15.90;99.90;;;;;;4990534;28;20065;-59
2023/03/18 11:14:15;;;;;;;11.10;8.55;;;16.00;99.90;;;;;;4991740;28;20053;-59
2023/03/18 11:16:57;;;;;;;9.70;7.40;;;16.20;99.90;;;;;;5003719;28;20041;-57
2023/03/18 11:19:28;;;;;;;11.13;6.82;;;16.20;99.90;;;;;;5005313;28;20050;-59
2023/03/18 11:22:18;;;;;;;7.68;4.97;;;16.30;99.90;;;;;;4999538;28;20513;-57
2023/03/18 11:24:44;;;;;;;8.00;5.57;;;16.40;99.90;;;;;;4998571;28;20073;-59
2023/03/18 11:27:13;;;;;;;7.25;4.80;;;16.40;99.90;;;;;;5000905;28;20131;-58
2023/03/18 11:29:45;;;;;;;8.57;5.28;;;16.50;99.90;;;;;;5002797;28;20374;-59
2023/03/18 11:32:35;;;;;;;6.82;4.00;;;16.70;99.90;;;;;;4995138;28;20033;-59
2023/03/18 11:35:04;;;;;;;5.65;3.60;;;16.80;99.90;;;;;;4996001;28;20129;-58
2023/03/18 11:37:40;;;;;;;7.32;3.67;;;16.90;99.90;;;;;;5012632;28;20103;-58
2023/03/18 11:40:21;;;;;;;6.03;3.80;;;17.00;99.90;;;;;;4991067;28;20046;-58
2023/03/18 11:42:53;;;;;;;6.88;4.32;;;17.10;99.90;;;;;;5015780;28;20599;-58
2023/03/18 11:45:25;;;;;;;7.20;5.55;;;17.20;99.90;;;;;;4983669;28;20125;-56
2023/03/18 11:47:56;;;;;;;8.35;7.10;;;17.10;99.90;;;;;;4998164;28;20041;-59
2023/03/18 11:50:25;;;;;;;11.82;8.25;;;16.80;99.90;;;;;;4989740;28;20069;-59
2023/03/18 11:53:14;;;;;;;12.00;8.60;;;16.60;99.90;;;;;;5018319;28;20045;-59
2023/03/18 11:55:55;;;;;;;11.82;8.90;;;16.50;99.90;;;;;;4991019;28;20126;-58
2023/03/18 11:58:30;;;;;;;12.07;8.63;;;16.60;99.90;;;;;;4981490;28;20562;-59
2023/03/18 12:01:16;;;;;;;12.10;9.32;;;16.40;99.90;;;;;;5001594;28;20126;-57
2023/03/18 12:04:09;;;;;;;12.73;9.43;;;16.30;99.90;;;;;;4982608;28;20129;-59
2023/03/18 12:06:47;;;;;;;10.73;8.80;;;16.20;99.90;;;;;;5005364;28;20041;-58
2023/03/18 12:09:37;;;;;;;13.90;8.77;;;16.00;99.90;;;;;;5010739;28;20038;-58
2023/03/18 12:12:33;;;;;;;10.27;8.77;;;15.90;99.90;;;;;;4983732;28;20046;-58
2023/03/18 12:15:21;;;;;;;10.73;8.43;;;16.00;99.90;;;;;;4971487;28;20045;-58
2023/03/18 12:17:55;;;;;;;11.15;8.55;;;16.00;99.90;;;;;;4971128;28;20397;-56
2023/03/18 12:20:45;;;;;;;11.88;8.38;;;15.80;99.90;;;;;;5010499;28;20030;-56
2023/03/18 12:23:26;;;;;;;11.32;9.05;;;15.80;99.90;;;;;;4989940;28;20049;-58
2023/03/18 12:26:22;;;;;;;9.82;8.65;;;16.20;99.90;;;;;;5004989;28;20049;-57
2023/03/18 12:29:08;;;;;;;11.77;8.73;;;16.60;99.90;;;;;;4972745;28;20054;-57
2023/03/18 12:31:49;;;;;;;10.55;9.10;;;16.70;99.90;;;;;;5004554;28;20046;-58
2023/03/18 12:35:01;;;;;;;8.88;7.15;;;17.00;99.90;;;;;;5011493;28;20496;-58
2023/03/18 12:37:56;;;;;;;6.95;6.25;;;17.00;99.90;;;;;;4941199;28;20054;-58
2023/03/18 12:40:40;;;;;;;8.00;6.10;;;17.10;99.90;;;;;;4987399;28;20378;-58
2023/03/18 12:43:30;;;;;;;8.40;5.88;;;17.20;99.90;;;;;;5013474;28;20404;-56
2023/03/18 12:46:10;;;;;;;7.22;6.10;;;17.50;99.90;;;;;;4989556;28;20050;-58
2023/03/18 12:48:48;;;;;;;9.65;5.72;;;17.70;99.90;;;;;;5012902;28;20049;-58